sensor_id;sensor_type;location;lat;lon;timestamp;temperature;humidity
40253;DHT22;25972;51.854;4.534;2023-09-18T00:01:44;19.20;99.90
40253;DHT22;25972;51.854;4.534;2023-09-18T00:04:12;19.30;99.90
40253;DHT22;25972;51.854;4.534;2023-09-18T00:06:39;19.30;99.90
40253;DHT22;25972;51.854;4.534;2023-09-18T00:09:06;19.30;99.90
40253;DHT22;25972;51.854;4.534;2023-09-18T00:11:37;19.30;99.90
40253;DHT22;25972;51.854;4.534;2023-09-18T00:14:04;19.30;99.90
40253;DHT22;25972;51.854;4.534;2023-09-18T00:16:30;19.30;99.90
40253;DHT22;25972;51.854;4.534;2023-09-18T00:18:57;19.30;99.90
40253;DHT22;25972;51.854;4.534;2023-09-18T00:21:25;19.30;99.90
40253;DHT22;25972;51.854;4.534;2023-09-18T00:23:54;19.30;99.90
40253;DHT22;25972;51.854;4.534;2023-09-18T00:26:20;19.30;99.90
40253;DHT22;25972;51.854;4.534;2023-09-18T00:28:52;19.30;99.90
40253;DHT22;25972;51.854;4.534;2023-09-18T00:31:19;19.30;99.90
40253;DHT22;25972;51.854;4.534;2023-09-18T00:33:45;19.30;99.90
40253;DHT22;25972;51.854;4.534;2023-09-18T00:36:11;19.30;99.90
40253;DHT22;25972;51.854;4.534;2023-09-18T00:38:39;19.30;99.90
40253;DHT22;25972;51.854;4.534;2023-09-18T00:41:05;19.20;99.90
40253;DHT22;25972;51.854;4.534;2023-09-18T00:43:32;19.30;99.90
40253;DHT22;25972;51.854;4.534;2023-09-18T00:45:58;19.30;99.90
40253;DHT22;25972;51.854;4.534;2023-09-18T00:48:27;19.30;99.90
40253;DHT22;25972;51.854;4.534;2023-09-18T00:50:54;19.30;99.90
40253;DHT22;25972;51.854;4.534;2023-09-18T00:53:22;19.20;99.90
40253;DHT22;25972;51.854;4.534;2023-09-18T00:55:54;19.20;99.90
40253;DHT22;25972;51.854;4.534;2023-09-18T00:58:23;19.20;99.90
40253;DHT22;25972;51.854;4.534;2023-09-18T01:00:51;19.20;99.90
40253;DHT22;25972;51.854;4.534;2023-09-18T01:03:19;19.20;99.90
40253;DHT22;25972;51.854;4.534;2023-09-18T01:05:45;19.30;99.90
40253;DHT22;25972;51.854;4.534;2023-09-18T01:08:11;19.20;99.90
40253;DHT22;25972;51.854;4.534;2023-09-18T01:10:56;19.20;99.90
40253;DHT22;25972;51.854;4.534;2023-09-18T01:13:34;19.20;99.90
40253;DHT22;25972;51.854;4.534;2023-09-18T01:16:10;19.20;99.90
40253;DHT22;25972;51.854;4.534;2023-09-18T01:18:49;19.20;99.90
40253;DHT22;25972;51.854;4.534;2023-09-18T01:21:15;19.10;99.90
40253;DHT22;25972;51.854;4.534;2023-09-18T01:23:44;19.10;99.90
40253;DHT22;25972;51.854;4.534;2023-09-18T01:26:10;19.10;99.90
40253;DHT22;25972;51.854;4.534;2023-09-18T01:28:36;19.10;99.90
40253;DHT22;25972;51.854;4.534;2023-09-18T01:31:02;19.10;99.90
40253;DHT22;25972;51.854;4.534;2023-09-18T01:33:29;19.10;99.90
40253;DHT22;25972;51.854;4.534;2023-09-18T01:35:57;19.10;99.90
40253;DHT22;25972;51.854;4.534;2023-09-18T01:38:25;19.10;99.90
40253;DHT22;25972;51.854;4.534;2023-09-18T01:40:57;19.10;99.90
40253;DHT22;25972;51.854;4.534;2023-09-18T01:43:25;19.10;99.90
40253;DHT22;25972;51.854;4.534;2023-09-18T01:45:54;19.10;99.90
40253;DHT22;25972;51.854;4.534;2023-09-18T01:48:23;19.10;99.90
40253;DHT22;25972;51.854;4.534;2023-09-18T01:50:49;19.10;99.90
40253;DHT22;25972;51.854;4.534;2023-09-18T01:53:15;19.10;99.90
40253;DHT22;25972;51.854;4.534;2023-09-18T01:55:42;19.10;99.90
40253;DHT22;25972;51.854;4.534;2023-09-18T01:58:09;19.10;99.90
40253;DHT22;25972;51.854;4.534;2023-09-18T02:00:36;19.10;99.90
40253;DHT22;25972;51.854;4.534;2023-09-18T02:03:02;19.10;99.90
40253;DHT22;25972;51.854;4.534;2023-09-18T02:05:30;19.20;99.90
40253;DHT22;25972;51.854;4.534;2023-09-18T02:07:56;19.20;99.90
40253;DHT22;25972;51.854;4.534;2023-09-18T02:10:23;19.20;99.90
40253;DHT22;25972;51.854;4.534;2023-09-18T02:12:49;19.20;99.90
40253;DHT22;25972;51.854;4.534;2023-09-18T02:15:17;19.20;99.90
40253;DHT22;25972;51.854;4.534;2023-09-18T02:17:43;19.20;99.90
40253;DHT22;25972;51.854;4.534;2023-09-18T02:20:10;19.20;99.90
40253;DHT22;25972;51.854;4.534;2023-09-18T02:22:37;19.20;99.90
40253;DHT22;25972;51.854;4.534;2023-09-18T02:25:06;19.20;99.90
40253;DHT22;25972;51.854;4.534;2023-09-18T02:27:34;19.20;99.90
40253;DHT22;25972;51.854;4.534;2023-09-18T02:30:00;19.20;99.90
40253;DHT22;25972;51.854;4.534;2023-09-18T02:32:27;19.20;99.90
40253;DHT22;25972;51.854;4.534;2023-09-18T02:34:56;19.20;99.90
40253;DHT22;25972;51.854;4.534;2023-09-18T02:37:25;19.20;99.90
40253;DHT22;25972;51.854;4.534;2023-09-18T02:39:54;19.20;99.90
40253;DHT22;25972;51.854;4.534;2023-09-18T02:42:20;19.20;99.90
40253;DHT22;25972;51.854;4.534;2023-09-18T02:44:46;19.20;99.90
40253;DHT22;25972;51.854;4.534;2023-09-18T02:47:13;19.20;99.90
40253;DHT22;25972;51.854;4.534;2023-09-18T02:49:41;19.20;99.90
40253;DHT22;25972;51.854;4.534;2023-09-18T02:52:08;19.20;99.90
40253;DHT22;25972;51.854;4.534;2023-09-18T02:54:34;19.20;99.90
40253;DHT22;25972;51.854;4.534;2023-09-18T02:57:00;19.20;99.90
40253;DHT22;25972;51.854;4.534;2023-09-18T02:59:26;19.20;99.90
40253;DHT22;25972;51.854;4.534;2023-09-18T03:01:55;19.20;99.90
40253;DHT22;25972;51.854;4.534;2023-09-18T03:04:22;19.20;99.90
40253;DHT22;25972;51.854;4.534;2023-09-18T03:06:51;19.20;99.90
40253;DHT22;25972;51.854;4.534;2023-09-18T03:09:20;19.20;99.90
40253;DHT22;25972;51.854;4.534;2023-09-18T03:11:47;19.20;99.90
40253;DHT22;25972;51.854;4.534;2023-09-18T03:14:13;19.20;99.90
40253;DHT22;25972;51.854;4.534;2023-09-18T03:16:39;19.20;99.90
40253;DHT22;25972;51.854;4.534;2023-09-18T03:19:06;19.40;99.90
40253;DHT22;25972;51.854;4.534;2023-09-18T03:21:32;19.30;99.90
40253;DHT22;25972;51.854;4.534;2023-09-18T03:24:02;19.30;99.90
40253;DHT22;25972;51.854;4.534;2023-09-18T03:26:29;19.30;99.90
40253;DHT22;25972;51.854;4.534;2023-09-18T03:28:55;19.30;99.90
40253;DHT22;25972;51.854;4.534;2023-09-18T03:31:21;19.30;99.90
40253;DHT22;25972;51.854;4.534;2023-09-18T03:33:48;19.30;99.90
40253;DHT22;25972;51.854;4.534;2023-09-18T03:36:14;19.40;99.90
40253;DHT22;25972;51.854;4.534;2023-09-18T03:38:40;19.40;99.90
40253;DHT22;25972;51.854;4.534;2023-09-18T03:41:09;19.50;99.90
40253;DHT22;25972;51.854;4.534;2023-09-18T03:43:35;19.50;99.90
40253;DHT22;25972;51.854;4.534;2023-09-18T03:46:04;19.40;99.90
40253;DHT22;25972;51.854;4.534;2023-09-18T03:48:33;19.40;99.90
40253;DHT22;25972;51.854;4.534;2023-09-18T03:51:03;19.40;99.90
40253;DHT22;25972;51.854;4.534;2023-09-18T03:53:29;19.40;99.90
40253;DHT22;25972;51.854;4.534;2023-09-18T03:55:55;19.40;99.90
40253;DHT22;25972;51.854;4.534;2023-09-18T03:58:23;19.30;99.90
40253;DHT22;25972;51.854;4.534;2023-09-18T04:00:49;19.30;99.90
40253;DHT22;25972;51.854;4.534;2023-09-18T04:03:15;19.30;99.90
40253;DHT22;25972;51.854;4.534;2023-09-18T04:05:41;19.30;99.90
40253;DHT22;25972;51.854;4.534;2023-09-18T04:08:07;19.20;99.90
40253;DHT22;25972;51.854;4.534;2023-09-18T04:10:33;19.30;99.90
40253;DHT22;25972;51.854;4.534;2023-09-18T04:13:00;19.30;99.90
40253;DHT22;25972;51.854;4.534;2023-09-18T04:15:29;19.30;99.90
40253;DHT22;25972;51.854;4.534;2023-09-18T04:17:56;19.20;99.90
40253;DHT22;25972;51.854;4.534;2023-09-18T04:20:25;19.20;99.90
40253;DHT22;25972;51.854;4.534;2023-09-18T04:23:17;19.20;99.90
40253;DHT22;25972;51.854;4.534;2023-09-18T04:25:43;19.20;99.90
40253;DHT22;25972;51.854;4.534;2023-09-18T04:28:09;19.20;99.90
40253;DHT22;25972;51.854;4.534;2023-09-18T04:30:37;19.20;99.90
40253;DHT22;25972;51.854;4.534;2023-09-18T04:33:03;19.20;99.90
40253;DHT22;25972;51.854;4.534;2023-09-18T04:35:29;19.30;99.90
40253;DHT22;25972;51.854;4.534;2023-09-18T04:37:58;19.20;99.90
40253;DHT22;25972;51.854;4.534;2023-09-18T04:40:25;19.30;99.90
40253;DHT22;25972;51.854;4.534;2023-09-18T04:42:53;19.30;99.90
40253;DHT22;25972;51.854;4.534;2023-09-18T04:45:19;19.20;99.90
40253;DHT22;25972;51.854;4.534;2023-09-18T04:47:47;19.30;99.90
40253;DHT22;25972;51.854;4.534;2023-09-18T04:50:13;19.20;99.90
40253;DHT22;25972;51.854;4.534;2023-09-18T04:52:40;19.30;99.90
40253;DHT22;25972;51.854;4.534;2023-09-18T04:55:10;19.20;99.90
40253;DHT22;25972;51.854;4.534;2023-09-18T04:57:37;19.20;99.90
40253;DHT22;25972;51.854;4.534;2023-09-18T05:00:04;19.20;99.90
40253;DHT22;25972;51.854;4.534;2023-09-18T05:02:39;19.20;99.90
40253;DHT22;25972;51.854;4.534;2023-09-18T05:05:07;19.30;99.90
40253;DHT22;25972;51.854;4.534;2023-09-18T05:07:36;19.20;99.90
40253;DHT22;25972;51.854;4.534;2023-09-18T05:10:02;19.20;99.90
40253;DHT22;25972;51.854;4.534;2023-09-18T05:12:30;19.30;99.90
40253;DHT22;25972;51.854;4.534;2023-09-18T05:14:56;19.20;99.90
40253;DHT22;25972;51.854;4.534;2023-09-18T05:17:39;19.20;99.90
40253;DHT22;25972;51.854;4.534;2023-09-18T05:20:09;19.20;99.90
40253;DHT22;25972;51.854;4.534;2023-09-18T05:22:37;19.20;99.90
40253;DHT22;25972;51.854;4.534;2023-09-18T05:25:06;19.30;99.90
40253;DHT22;25972;51.854;4.534;2023-09-18T05:27:32;19.20;99.90
40253;DHT22;25972;51.854;4.534;2023-09-18T05:29:58;19.30;99.90
40253;DHT22;25972;51.854;4.534;2023-09-18T05:32:24;19.20;99.90
40253;DHT22;25972;51.854;4.534;2023-09-18T05:34:50;19.30;99.90
40253;DHT22;25972;51.854;4.534;2023-09-18T05:37:18;19.20;99.90
40253;DHT22;25972;51.854;4.534;2023-09-18T05:39:44;19.30;99.90
40253;DHT22;25972;51.854;4.534;2023-09-18T05:42:10;19.20;99.90
40253;DHT22;25972;51.854;4.534;2023-09-18T05:44:36;19.20;99.90
40253;DHT22;25972;51.854;4.534;2023-09-18T05:47:05;19.10;99.90
40253;DHT22;25972;51.854;4.534;2023-09-18T05:49:31;19.20;99.90
40253;DHT22;25972;51.854;4.534;2023-09-18T05:51:57;19.20;99.90
40253;DHT22;25972;51.854;4.534;2023-09-18T05:54:24;19.20;99.90
40253;DHT22;25972;51.854;4.534;2023-09-18T05:56:50;19.20;99.90
40253;DHT22;25972;51.854;4.534;2023-09-18T05:59:16;19.20;99.90
40253;DHT22;25972;51.854;4.534;2023-09-18T06:01:44;19.10;99.90
40253;DHT22;25972;51.854;4.534;2023-09-18T06:04:11;19.10;99.90
40253;DHT22;25972;51.854;4.534;2023-09-18T06:06:38;19.00;99.90
40253;DHT22;25972;51.854;4.534;2023-09-18T06:09:05;19.00;99.90
40253;DHT22;25972;51.854;4.534;2023-09-18T06:11:32;19.00;99.90
40253;DHT22;25972;51.854;4.534;2023-09-18T06:13:58;18.90;99.90
40253;DHT22;25972;51.854;4.534;2023-09-18T06:16:24;19.00;99.90
40253;DHT22;25972;51.854;4.534;2023-09-18T06:18:50;18.90;99.90
40253;DHT22;25972;51.854;4.534;2023-09-18T06:21:17;18.90;99.90
40253;DHT22;25972;51.854;4.534;2023-09-18T06:23:44;18.80;99.90
40253;DHT22;25972;51.854;4.534;2023-09-18T06:26:10;18.90;99.90
40253;DHT22;25972;51.854;4.534;2023-09-18T06:28:37;18.80;99.90
40253;DHT22;25972;51.854;4.534;2023-09-18T06:31:04;18.80;99.90
40253;DHT22;25972;51.854;4.534;2023-09-18T06:33:30;18.80;99.90
40253;DHT22;25972;51.854;4.534;2023-09-18T06:35:56;18.80;99.90
40253;DHT22;25972;51.854;4.534;2023-09-18T06:38:25;18.80;99.90
40253;DHT22;25972;51.854;4.534;2023-09-18T06:40:51;18.90;99.90
40253;DHT22;25972;51.854;4.534;2023-09-18T06:43:20;18.90;99.90
40253;DHT22;25972;51.854;4.534;2023-09-18T06:45:47;18.70;99.90
40253;DHT22;25972;51.854;4.534;2023-09-18T06:48:13;18.80;99.90
40253;DHT22;25972;51.854;4.534;2023-09-18T06:50:41;18.80;99.90
40253;DHT22;25972;51.854;4.534;2023-09-18T06:53:07;18.70;99.90
40253;DHT22;25972;51.854;4.534;2023-09-18T06:55:33;18.70;99.90
40253;DHT22;25972;51.854;4.534;2023-09-18T06:57:59;18.70;99.90
40253;DHT22;25972;51.854;4.534;2023-09-18T07:00:25;18.80;99.90
40253;DHT22;25972;51.854;4.534;2023-09-18T07:02:53;18.70;99.90
40253;DHT22;25972;51.854;4.534;2023-09-18T07:05:19;18.70;99.90
40253;DHT22;25972;51.854;4.534;2023-09-18T07:07:46;18.60;99.90
40253;DHT22;25972;51.854;4.534;2023-09-18T07:10:12;18.70;99.90
40253;DHT22;25972;51.854;4.534;2023-09-18T07:12:38;18.60;99.90
40253;DHT22;25972;51.854;4.534;2023-09-18T07:15:05;18.70;99.90
40253;DHT22;25972;51.854;4.534;2023-09-18T07:17:32;18.70;99.90
40253;DHT22;25972;51.854;4.534;2023-09-18T07:19:59;18.70;99.90
40253;DHT22;25972;51.854;4.534;2023-09-18T07:22:26;18.80;99.90
40253;DHT22;25972;51.854;4.534;2023-09-18T07:24:52;18.70;99.90
40253;DHT22;25972;51.854;4.534;2023-09-18T07:27:18;18.80;99.90
40253;DHT22;25972;51.854;4.534;2023-09-18T07:29:44;18.70;99.90
40253;DHT22;25972;51.854;4.534;2023-09-18T07:32:11;18.90;99.90
40253;DHT22;25972;51.854;4.534;2023-09-18T07:34:38;18.80;99.90
40253;DHT22;25972;51.854;4.534;2023-09-18T07:37:06;18.90;99.90
40253;DHT22;25972;51.854;4.534;2023-09-18T07:39:32;18.90;99.90
40253;DHT22;25972;51.854;4.534;2023-09-18T07:41:58;18.90;99.90
40253;DHT22;25972;51.854;4.534;2023-09-18T07:44:24;18.80;99.90
40253;DHT22;25972;51.854;4.534;2023-09-18T07:46:50;18.80;99.90
40253;DHT22;25972;51.854;4.534;2023-09-18T07:49:16;18.90;99.90
40253;DHT22;25972;51.854;4.534;2023-09-18T07:51:44;19.00;99.90
40253;DHT22;25972;51.854;4.534;2023-09-18T07:54:14;18.90;99.90
40253;DHT22;25972;51.854;4.534;2023-09-18T07:56:41;19.00;99.90
40253;DHT22;25972;51.854;4.534;2023-09-18T07:59:09;19.10;99.90
40253;DHT22;25972;51.854;4.534;2023-09-18T08:01:36;19.10;99.90
40253;DHT22;25972;51.854;4.534;2023-09-18T08:04:02;19.10;99.90
40253;DHT22;25972;51.854;4.534;2023-09-18T08:06:28;19.20;99.90
40253;DHT22;25972;51.854;4.534;2023-09-18T08:08:57;19.30;99.90
40253;DHT22;25972;51.854;4.534;2023-09-18T08:11:27;19.20;99.90
40253;DHT22;25972;51.854;4.534;2023-09-18T08:13:53;19.20;99.90
40253;DHT22;25972;51.854;4.534;2023-09-18T08:16:19;19.30;99.90
40253;DHT22;25972;51.854;4.534;2023-09-18T08:18:45;19.40;99.90
40253;DHT22;25972;51.854;4.534;2023-09-18T08:21:11;19.50;99.90
40253;DHT22;25972;51.854;4.534;2023-09-18T08:23:39;19.60;99.90
40253;DHT22;25972;51.854;4.534;2023-09-18T08:26:05;19.60;99.90
40253;DHT22;25972;51.854;4.534;2023-09-18T08:28:33;19.60;99.90
40253;DHT22;25972;51.854;4.534;2023-09-18T08:31:01;19.70;99.90
40253;DHT22;25972;51.854;4.534;2023-09-18T08:33:27;19.70;99.90
40253;DHT22;25972;51.854;4.534;2023-09-18T08:35:53;19.70;99.90
40253;DHT22;25972;51.854;4.534;2023-09-18T08:38:22;19.80;99.90
40253;DHT22;25972;51.854;4.534;2023-09-18T08:40:48;19.90;99.90
40253;DHT22;25972;51.854;4.534;2023-09-18T08:43:16;20.10;99.90
40253;DHT22;25972;51.854;4.534;2023-09-18T08:45:49;20.00;99.90
40253;DHT22;25972;51.854;4.534;2023-09-18T08:48:17;19.90;99.90
40253;DHT22;25972;51.854;4.534;2023-09-18T08:50:43;20.00;99.90
40253;DHT22;25972;51.854;4.534;2023-09-18T08:53:10;20.00;99.90
40253;DHT22;25972;51.854;4.534;2023-09-18T08:55:37;19.90;99.90
40253;DHT22;25972;51.854;4.534;2023-09-18T08:58:06;19.90;99.90
40253;DHT22;25972;51.854;4.534;2023-09-18T09:00:33;19.80;99.90
40253;DHT22;25972;51.854;4.534;2023-09-18T09:03:03;19.70;99.90
40253;DHT22;25972;51.854;4.534;2023-09-18T09:05:30;19.50;99.90
40253;DHT22;25972;51.854;4.534;2023-09-18T09:07:57;19.50;99.90
40253;DHT22;25972;51.854;4.534;2023-09-18T09:10:24;19.40;99.90
40253;DHT22;25972;51.854;4.534;2023-09-18T09:12:55;19.40;99.90
40253;DHT22;25972;51.854;4.534;2023-09-18T09:15:23;19.30;99.90
40253;DHT22;25972;51.854;4.534;2023-09-18T09:17:52;19.30;99.90
40253;DHT22;25972;51.854;4.534;2023-09-18T09:20:19;19.20;99.90
40253;DHT22;25972;51.854;4.534;2023-09-18T09:22:46;19.20;99.90
40253;DHT22;25972;51.854;4.534;2023-09-18T09:25:26;19.30;99.90
40253;DHT22;25972;51.854;4.534;2023-09-18T09:27:53;19.20;99.90
40253;DHT22;25972;51.854;4.534;2023-09-18T09:30:20;19.20;99.90
40253;DHT22;25972;51.854;4.534;2023-09-18T09:32:48;19.20;99.90
40253;DHT22;25972;51.854;4.534;2023-09-18T09:35:21;19.30;99.90
40253;DHT22;25972;51.854;4.534;2023-09-18T09:37:47;19.30;99.90
40253;DHT22;25972;51.854;4.534;2023-09-18T09:40:14;19.30;99.90
40253;DHT22;25972;51.854;4.534;2023-09-18T09:42:41;19.20;99.90
40253;DHT22;25972;51.854;4.534;2023-09-18T09:45:11;19.40;99.90
40253;DHT22;25972;51.854;4.534;2023-09-18T09:47:37;19.60;99.90
40253;DHT22;25972;51.854;4.534;2023-09-18T09:50:06;19.70;99.90
40253;DHT22;25972;51.854;4.534;2023-09-18T09:52:35;19.70;99.90
40253;DHT22;25972;51.854;4.534;2023-09-18T09:55:02;19.80;99.90
40253;DHT22;25972;51.854;4.534;2023-09-18T09:57:30;19.80;99.90
40253;DHT22;25972;51.854;4.534;2023-09-18T10:00:03;19.90;99.90
40253;DHT22;25972;51.854;4.534;2023-09-18T10:02:48;20.10;99.90
40253;DHT22;25972;51.854;4.534;2023-09-18T10:05:16;20.20;99.90
40253;DHT22;25972;51.854;4.534;2023-09-18T10:07:45;20.10;99.90
40253;DHT22;25972;51.854;4.534;2023-09-18T10:10:11;20.20;99.90
40253;DHT22;25972;51.854;4.534;2023-09-18T10:12:38;20.50;99.90
40253;DHT22;25972;51.854;4.534;2023-09-18T10:15:09;20.50;99.90
40253;DHT22;25972;51.854;4.534;2023-09-18T10:17:42;20.40;99.90
40253;DHT22;25972;51.854;4.534;2023-09-18T10:20:12;20.50;99.90
40253;DHT22;25972;51.854;4.534;2023-09-18T10:22:51;20.40;99.90
40253;DHT22;25972;51.854;4.534;2023-09-18T10:25:21;20.40;99.90
40253;DHT22;25972;51.854;4.534;2023-09-18T10:27:51;20.30;99.90
40253;DHT22;25972;51.854;4.534;2023-09-18T10:30:26;20.40;99.90
40253;DHT22;25972;51.854;4.534;2023-09-18T10:32:53;20.50;99.90
40253;DHT22;25972;51.854;4.534;2023-09-18T10:35:19;20.50;99.90
40253;DHT22;25972;51.854;4.534;2023-09-18T10:37:48;20.40;99.90
40253;DHT22;25972;51.854;4.534;2023-09-18T10:40:16;20.50;99.90
40253;DHT22;25972;51.854;4.534;2023-09-18T10:42:43;20.70;99.90
40253;DHT22;25972;51.854;4.534;2023-09-18T10:45:12;20.80;99.90
40253;DHT22;25972;51.854;4.534;2023-09-18T10:47:39;20.90;99.90
40253;DHT22;25972;51.854;4.534;2023-09-18T10:50:06;20.90;99.90
40253;DHT22;25972;51.854;4.534;2023-09-18T10:52:34;21.10;99.90
40253;DHT22;25972;51.854;4.534;2023-09-18T10:55:01;21.10;99.90
40253;DHT22;25972;51.854;4.534;2023-09-18T10:57:34;21.10;99.90
40253;DHT22;25972;51.854;4.534;2023-09-18T11:00:06;21.00;99.90
40253;DHT22;25972;51.854;4.534;2023-09-18T11:02:40;21.10;99.90
40253;DHT22;25972;51.854;4.534;2023-09-18T11:05:06;21.10;99.90
40253;DHT22;25972;51.854;4.534;2023-09-18T11:07:32;21.00;99.90
40253;DHT22;25972;51.854;4.534;2023-09-18T11:09:58;20.90;99.90
40253;DHT22;25972;51.854;4.534;2023-09-18T11:12:44;20.80;99.90
40253;DHT22;25972;51.854;4.534;2023-09-18T11:15:31;20.70;99.90
40253;DHT22;25972;51.854;4.534;2023-09-18T11:17:59;20.60;99.90
40253;DHT22;25972;51.854;4.534;2023-09-18T11:20:27;20.60;99.90
40253;DHT22;25972;51.854;4.534;2023-09-18T11:22:59;20.80;99.90
40253;DHT22;25972;51.854;4.534;2023-09-18T11:25:36;20.90;99.90
40253;DHT22;25972;51.854;4.534;2023-09-18T11:28:16;20.90;99.90
40253;DHT22;25972;51.854;4.534;2023-09-18T11:30:50;21.00;99.90
40253;DHT22;25972;51.854;4.534;2023-09-18T11:33:30;21.10;99.90
40253;DHT22;25972;51.854;4.534;2023-09-18T11:35:56;21.30;99.90
40253;DHT22;25972;51.854;4.534;2023-09-18T11:38:23;21.30;99.90
40253;DHT22;25972;51.854;4.534;2023-09-18T11:40:53;21.40;99.90
40253;DHT22;25972;51.854;4.534;2023-09-18T11:43:25;21.50;99.90
40253;DHT22;25972;51.854;4.534;2023-09-18T11:45:52;21.50;99.90
40253;DHT22;25972;51.854;4.534;2023-09-18T11:48:19;21.50;99.90
40253;DHT22;25972;51.854;4.534;2023-09-18T11:50:47;21.50;99.90
40253;DHT22;25972;51.854;4.534;2023-09-18T11:53:17;21.60;99.90
40253;DHT22;25972;51.854;4.534;2023-09-18T11:55:47;21.50;99.90
40253;DHT22;25972;51.854;4.534;2023-09-18T11:58:13;21.60;99.90
40253;DHT22;25972;51.854;4.534;2023-09-18T12:00:41;21.70;99.90
40253;DHT22;25972;51.854;4.534;2023-09-18T12:03:16;21.80;99.90
40253;DHT22;25972;51.854;4.534;2023-09-18T12:05:52;21.90;99.90
40253;DHT22;25972;51.854;4.534;2023-09-18T12:08:19;21.80;99.90
40253;DHT22;25972;51.854;4.534;2023-09-18T12:10:49;21.80;99.90
40253;DHT22;25972;51.854;4.534;2023-09-18T12:13:15;21.90;99.90
40253;DHT22;25972;51.854;4.534;2023-09-18T12:15:43;21.90;99.90
40253;DHT22;25972;51.854;4.534;2023-09-18T12:18:10;21.90;99.90
40253;DHT22;25972;51.854;4.534;2023-09-18T12:20:45;22.00;99.90
40253;DHT22;25972;51.854;4.534;2023-09-18T12:23:12;22.10;99.90
40253;DHT22;25972;51.854;4.534;2023-09-18T12:25:38;22.20;99.90
40253;DHT22;25972;51.854;4.534;2023-09-18T12:28:06;22.10;99.90
40253;DHT22;25972;51.854;4.534;2023-09-18T12:30:33;22.00;99.90
40253;DHT22;25972;51.854;4.534;2023-09-18T12:33:01;21.80;99.90
40253;DHT22;25972;51.854;4.534;2023-09-18T12:35:29;21.90;99.90
40253;DHT22;25972;51.854;4.534;2023-09-18T12:37:59;22.10;99.90
40253;DHT22;25972;51.854;4.534;2023-09-18T12:40:27;22.20;99.90
40253;DHT22;25972;51.854;4.534;2023-09-18T12:42:56;22.20;99.90
40253;DHT22;25972;51.854;4.534;2023-09-18T12:45:22;22.20;99.90
40253;DHT22;25972;51.854;4.534;2023-09-18T12:47:50;22.20;99.90
40253;DHT22;25972;51.854;4.534;2023-09-18T12:50:18;22.30;99.90
40253;DHT22;25972;51.854;4.534;2023-09-18T12:52:44;22.20;99.90
40253;DHT22;25972;51.854;4.534;2023-09-18T12:55:21;22.20;99.90
40253;DHT22;25972;51.854;4.534;2023-09-18T12:57:48;22.10;99.90
40253;DHT22;25972;51.854;4.534;2023-09-18T13:00:18;22.20;99.90
40253;DHT22;25972;51.854;4.534;2023-09-18T13:02:47;22.30;99.90
40253;DHT22;25972;51.854;4.534;2023-09-18T13:05:20;22.50;99.90
40253;DHT22;25972;51.854;4.534;2023-09-18T13:07:47;22.50;99.90
40253;DHT22;25972;51.854;4.534;2023-09-18T13:10:16;22.60;99.90
40253;DHT22;25972;51.854;4.534;2023-09-18T13:12:47;22.60;99.90
40253;DHT22;25972;51.854;4.534;2023-09-18T13:15:13;22.60;99.90
40253;DHT22;25972;51.854;4.534;2023-09-18T13:17:41;22.60;99.90
40253;DHT22;25972;51.854;4.534;2023-09-18T13:20:12;22.60;99.90
40253;DHT22;25972;51.854;4.534;2023-09-18T13:22:40;22.70;99.90
40253;DHT22;25972;51.854;4.534;2023-09-18T13:25:08;22.70;99.90
40253;DHT22;25972;51.854;4.534;2023-09-18T13:27:34;22.50;91.70
40253;DHT22;25972;51.854;4.534;2023-09-18T13:30:00;22.50;84.10
40253;DHT22;25972;51.854;4.534;2023-09-18T13:32:34;22.40;60.50
40253;DHT22;25972;51.854;4.534;2023-09-18T13:35:00;22.30;67.10
40253;DHT22;25972;51.854;4.534;2023-09-18T13:37:29;22.40;82.80
40253;DHT22;25972;51.854;4.534;2023-09-18T13:40:00;22.40;86.40
40253;DHT22;25972;51.854;4.534;2023-09-18T13:42:32;22.50;91.70
40253;DHT22;25972;51.854;4.534;2023-09-18T13:44:59;22.50;65.10
40253;DHT22;25972;51.854;4.534;2023-09-18T13:47:28;22.40;47.20
40253;DHT22;25972;51.854;4.534;2023-09-18T13:49:55;22.40;42.80
40253;DHT22;25972;51.854;4.534;2023-09-18T13:52:27;22.40;45.20
40253;DHT22;25972;51.854;4.534;2023-09-18T13:54:53;22.40;49.40
40253;DHT22;25972;51.854;4.534;2023-09-18T13:57:21;22.30;35.60
40253;DHT22;25972;51.854;4.534;2023-09-18T13:59:48;22.30;44.40
40253;DHT22;25972;51.854;4.534;2023-09-18T14:02:15;22.30;39.40
40253;DHT22;25972;51.854;4.534;2023-09-18T14:04:42;22.10;34.80
40253;DHT22;25972;51.854;4.534;2023-09-18T14:07:10;22.10;32.70
40253;DHT22;25972;51.854;4.534;2023-09-18T14:09:36;22.00;44.30
40253;DHT22;25972;51.854;4.534;2023-09-18T14:12:03;21.80;70.40
40253;DHT22;25972;51.854;4.534;2023-09-18T14:14:30;21.50;99.90
40253;DHT22;25972;51.854;4.534;2023-09-18T14:16:58;21.30;99.90
40253;DHT22;25972;51.854;4.534;2023-09-18T14:19:24;21.00;99.90
40253;DHT22;25972;51.854;4.534;2023-09-18T14:21:51;20.90;99.90
40253;DHT22;25972;51.854;4.534;2023-09-18T14:24:18;19.90;99.90
40253;DHT22;25972;51.854;4.534;2023-09-18T14:26:50;19.20;99.90
40253;DHT22;25972;51.854;4.534;2023-09-18T14:29:16;18.70;99.90
40253;DHT22;25972;51.854;4.534;2023-09-18T14:31:44;18.20;99.90
40253;DHT22;25972;51.854;4.534;2023-09-18T14:34:10;17.80;99.90
40253;DHT22;25972;51.854;4.534;2023-09-18T14:36:36;17.70;99.90
40253;DHT22;25972;51.854;4.534;2023-09-18T14:39:03;17.60;99.90
40253;DHT22;25972;51.854;4.534;2023-09-18T14:41:29;17.50;99.90
40253;DHT22;25972;51.854;4.534;2023-09-18T14:43:58;17.40;99.90
40253;DHT22;25972;51.854;4.534;2023-09-18T14:46:25;17.40;99.90
40253;DHT22;25972;51.854;4.534;2023-09-18T14:48:53;17.40;99.90
40253;DHT22;25972;51.854;4.534;2023-09-18T14:51:19;17.40;99.90
40253;DHT22;25972;51.854;4.534;2023-09-18T14:53:45;17.40;99.90
40253;DHT22;25972;51.854;4.534;2023-09-18T14:56:11;17.40;99.90
40253;DHT22;25972;51.854;4.534;2023-09-18T14:58:40;17.50;99.90
40253;DHT22;25972;51.854;4.534;2023-09-18T15:01:06;17.50;99.90
40253;DHT22;25972;51.854;4.534;2023-09-18T15:03:33;17.50;99.90
40253;DHT22;25972;51.854;4.534;2023-09-18T15:06:09;17.60;99.90
40253;DHT22;25972;51.854;4.534;2023-09-18T15:08:44;17.70;99.90
40253;DHT22;25972;51.854;4.534;2023-09-18T15:11:11;18.00;99.90
40253;DHT22;25972;51.854;4.534;2023-09-18T15:13:38;18.20;99.90
40253;DHT22;25972;51.854;4.534;2023-09-18T15:16:05;18.40;99.90
40253;DHT22;25972;51.854;4.534;2023-09-18T15:18:32;18.60;99.90
40253;DHT22;25972;51.854;4.534;2023-09-18T15:20:58;18.60;99.90
40253;DHT22;25972;51.854;4.534;2023-09-18T15:23:25;18.80;99.90
40253;DHT22;25972;51.854;4.534;2023-09-18T15:25:52;19.00;99.90
40253;DHT22;25972;51.854;4.534;2023-09-18T15:28:21;19.10;99.90
40253;DHT22;25972;51.854;4.534;2023-09-18T15:30:47;19.10;99.90
40253;DHT22;25972;51.854;4.534;2023-09-18T15:33:14;19.10;99.90
40253;DHT22;25972;51.854;4.534;2023-09-18T15:35:43;19.10;99.90